createdAt,value
2023-02-12T00:03:17.863Z,101951.61
2023-02-12T00:07:06.008Z,101941.19
2023-02-12T00:10:44.189Z,101956.86
2023-02-12T00:14:36.032Z,101958.67
2023-02-12T00:18:23.580Z,101969.73
2023-02-12T00:22:07.888Z,101981.64
2023-02-12T00:26:44.220Z,101990.52
2023-02-12T00:30:05.241Z,102003.79
2023-02-12T00:33:52.612Z,102002.64
2023-02-12T00:37:40.931Z,102004.85
2023-02-12T00:42:15.180Z,101998.08
2023-02-12T00:45:35.522Z,102007.73
2023-02-12T00:49:22.831Z,102014.05
2023-02-12T00:53:14.472Z,102020.48
2023-02-12T00:57:01.904Z,102023.52
2023-02-12T01:00:30.249Z,102024.63
2023-02-12T01:04:20.450Z,102025.83
2023-02-12T01:08:08.251Z,102038.95
2023-02-12T01:11:56.101Z,102045.53
2023-02-12T01:15:36.604Z,102052.72
2023-02-12T01:19:14.295Z,102050.58
2023-02-12T01:23:02.050Z,102055.21
2023-02-12T01:26:48.664Z,102070.50
2023-02-12T01:30:21.403Z,102073.41
2023-02-12T01:34:09.088Z,102079.77
2023-02-12T01:37:40.768Z,102079.69
2023-02-12T01:41:21.072Z,102092.85
2023-02-12T01:45:07.156Z,102097.14
2023-02-12T01:48:53.394Z,102096.61
2023-02-12T01:52:12.460Z,102091.41
2023-02-12T01:55:15.836Z,102096.06
2023-02-12T01:58:50.196Z,102098.80
2023-02-12T02:02:37.725Z,102107.98
2023-02-12T02:06:34.428Z,102115.90
2023-02-12T02:10:07.977Z,102116.24
2023-02-12T02:13:43.204Z,102115.65
2023-02-12T02:17:30.569Z,102129.20
2023-02-12T02:21:33.709Z,102140.93
2023-02-12T02:25:19.795Z,102130.04
2023-02-12T02:29:19.123Z,102154.52
2023-02-12T02:32:58.369Z,102168.06
2023-02-12T02:37:00.264Z,102170.75
2023-02-12T02:40:49.360Z,102175.11
2023-02-12T02:44:07.414Z,102191.81
2023-02-12T02:47:54.783Z,102187.73
2023-02-12T02:51:42.120Z,102193.59
2023-02-12T02:55:29.533Z,102208.46
2023-02-12T02:59:12.710Z,102223.02
2023-02-12T03:02:55.413Z,102231.44
2023-02-12T03:06:35.413Z,102234.23
2023-02-12T03:10:14.441Z,102242.15
2023-02-12T03:13:49.581Z,102257.83
2023-02-12T03:17:42.754Z,102266.34
2023-02-12T03:21:22.033Z,102271.74
2023-02-12T03:25:17.905Z,102273.90
2023-02-12T03:29:01.082Z,102278.14
2023-02-12T03:32:22.594Z,102289.48
2023-02-12T03:36:12.752Z,102287.19
2023-02-12T03:39:45.991Z,102289.27
2023-02-12T03:43:39.559Z,102297.55
2023-02-12T03:47:41.851Z,102310.17
2023-02-12T03:51:34.985Z,102315.20
2023-02-12T03:55:21.340Z,102329.70
2023-02-12T03:59:07.912Z,102338.81
2023-02-12T04:02:56.033Z,102344.23
2023-02-12T04:06:34.605Z,102344.36
2023-02-12T04:09:58.210Z,102348.34
2023-02-12T04:13:53.363Z,102356.08
2023-02-12T04:17:49.860Z,102359.30
2023-02-12T04:21:28.760Z,102357.52
2023-02-12T04:25:08.143Z,102354.02
2023-02-12T04:28:55.366Z,102358.64
2023-02-12T04:32:37.895Z,102369.70
2023-02-12T04:36:31.981Z,102370.80
2023-02-12T04:39:59.030Z,102380.72
2023-02-12T04:43:36.387Z,102373.73
2023-02-12T04:47:24.815Z,102370.66
2023-02-12T04:51:11.078Z,102378.32
2023-02-12T04:54:29.357Z,102387.30
2023-02-12T04:58:17.193Z,102395.73
2023-02-12T05:01:47.641Z,102402.08
2023-02-12T05:05:25.560Z,102414.77
2023-02-12T05:08:56.759Z,102416.13
2023-02-12T05:12:43.958Z,102429.94
2023-02-12T05:16:11.252Z,102434.84
2023-02-12T05:19:12.466Z,102446.03
2023-02-12T05:22:35.227Z,102448.80
2023-02-12T05:26:03.529Z,102452.39
2023-02-12T05:29:40.622Z,102452.91
2023-02-12T05:32:54.935Z,102449.94
2023-02-12T05:36:33.377Z,102452.02
2023-02-12T05:40:21.655Z,102459.23
2023-02-12T05:43:44.262Z,102463.88
2023-02-12T05:47:31.596Z,102473.74
2023-02-12T05:51:11.761Z,102480.32
2023-02-12T05:54:59.110Z,102488.59
2023-02-12T05:58:36.288Z,102500.16
2023-02-12T06:02:23.712Z,102505.71
2023-02-12T06:06:01.717Z,102518.14
2023-02-12T06:09:49.382Z,102522.48
2023-02-12T06:13:29.594Z,102531.51
2023-02-12T06:17:10.394Z,102536.04
2023-02-12T06:20:40.729Z,102538.30
2023-02-12T06:24:04.264Z,102537.13
2023-02-12T06:27:41.530Z,102539.95
2023-02-12T06:31:28.079Z,102546.17
2023-02-12T06:34:50.461Z,102552.36
2023-02-12T06:38:38.218Z,102551.42
2023-02-12T06:42:08.374Z,102553.59
2023-02-12T06:45:45.586Z,102553.16
2023-02-12T06:49:23.883Z,102559.25
2023-02-12T06:52:50.048Z,102562.98
2023-02-12T06:56:24.262Z,102565.32
2023-02-12T07:00:11.623Z,102566.96
2023-02-12T07:03:59.017Z,102569.33
2023-02-12T07:07:09.370Z,102578.23
2023-02-12T07:10:03.402Z,102583.02
2023-02-12T07:13:37.023Z,102581.41
2023-02-12T07:17:14.284Z,102592.93
2023-02-12T07:20:10.146Z,102591.69
2023-02-12T07:23:31.534Z,102595.83
2023-02-12T07:27:18.919Z,102592.33
2023-02-12T07:30:37.603Z,102598.45
2023-02-12T07:34:17.558Z,102589.12
2023-02-12T07:37:53.605Z,102586.52
2023-02-12T07:41:46.642Z,102583.90
2023-02-12T07:45:22.932Z,102588.55
2023-02-12T07:48:55.456Z,102599.80
2023-02-12T07:52:41.754Z,102600.78
2023-02-12T07:56:23.600Z,102611.78
2023-02-12T08:00:11.254Z,102616.67
2023-02-12T08:03:52.866Z,102612.33
2023-02-12T08:07:15.740Z,102618.64
2023-02-12T08:10:56.076Z,102623.06
2023-02-12T08:14:44.410Z,102626.13
2023-02-12T08:18:32.061Z,102632.14
2023-02-12T08:22:20.203Z,102634.11
2023-02-12T08:25:47.667Z,102643.66
2023-02-12T08:29:38.055Z,102640.11
2023-02-12T08:33:26.433Z,102639.70
2023-02-12T08:36:57.197Z,102643.40
2023-02-12T08:40:45.052Z,102640.42
2023-02-12T08:44:25.776Z,102635.97
2023-02-12T08:48:02.917Z,102626.59
2023-02-12T08:51:45.990Z,102621.00
2023-02-12T08:55:17.764Z,102614.55
2023-02-12T08:58:56.611Z,102620.85
2023-02-12T09:02:29.847Z,102641.04
2023-02-12T09:06:07.681Z,102640.13
2023-02-12T09:09:55.050Z,102643.02
2023-02-12T09:13:42.594Z,102643.02
2023-02-12T09:17:12.916Z,102636.08
2023-02-12T09:20:55.441Z,102638.05
2023-02-12T09:24:28.317Z,102648.61
2023-02-12T09:28:16.236Z,102659.24
2023-02-12T09:31:59.750Z,102666.30
2023-02-12T09:35:48.137Z,102666.02
2023-02-12T09:39:35.378Z,102671.48
2023-02-12T09:43:20.008Z,102672.09
2023-02-12T09:47:08.058Z,102666.92
2023-02-12T09:51:10.624Z,102665.83
2023-02-12T09:55:00.794Z,102667.11
2023-02-12T09:58:33.464Z,102669.05
2023-02-12T10:02:13.558Z,102669.21
2023-02-12T10:05:36.612Z,102657.91
2023-02-12T10:09:27.093Z,102653.37
2023-02-12T10:13:23.271Z,102660.16
2023-02-12T10:17:22.510Z,102662.36
2023-02-12T10:21:33.042Z,102659.44
2023-02-12T10:25:33.191Z,102667.52
2023-02-12T10:29:20.585Z,102670.11
2023-02-12T10:33:12.019Z,102665.77
2023-02-12T10:36:40.547Z,102653.98
2023-02-12T10:40:21.386Z,102646.55
2023-02-12T10:44:02.173Z,102650.42
2023-02-12T10:47:55.525Z,102651.59
2023-02-12T10:51:49.165Z,102647.56
2023-02-12T10:55:44.456Z,102649.22
2023-02-12T10:59:34.204Z,102662.36
2023-02-12T11:03:22.925Z,102666.18
2023-02-12T11:07:06.931Z,102656.67
2023-02-12T11:10:47.675Z,102652.61
2023-02-12T11:14:35.300Z,102653.84
2023-02-12T11:18:43.001Z,102656.48
2023-02-12T11:22:15.787Z,102654.33
2023-02-12T11:26:03.162Z,102661.55
2023-02-12T11:29:58.640Z,102664.43
2023-02-12T11:33:39.118Z,102654.30
2023-02-12T11:37:26.549Z,102647.59
2023-02-12T11:41:20.263Z,102639.69
2023-02-12T11:45:08.859Z,102637.63
2023-02-12T11:49:03.420Z,102632.82
2023-02-12T11:52:44.550Z,102618.58
2023-02-12T11:56:26.717Z,102626.66
2023-02-12T12:00:16.731Z,102628.05
2023-02-12T12:03:57.351Z,102625.80
2023-02-12T12:07:41.908Z,102630.92
2023-02-12T12:11:12.573Z,102631.64
2023-02-12T12:15:19.287Z,102625.95
2023-02-12T12:19:03.197Z,102617.71
2023-02-12T12:23:31.180Z,102602.29
2023-02-12T12:27:23.573Z,102595.07
2023-02-12T12:31:14.131Z,102602.02
2023-02-12T12:35:23.247Z,102600.71
2023-02-12T12:39:07.681Z,102600.20
2023-02-12T12:43:12.597Z,102602.36
2023-02-12T12:47:08.721Z,102599.55
2023-02-12T12:51:07.999Z,102596.71
2023-02-12T12:54:46.438Z,102590.86
2023-02-12T12:58:33.608Z,102589.01
2023-02-12T13:02:38.909Z,102590.14
2023-02-12T13:06:28.018Z,102587.53
2023-02-12T13:10:28.882Z,102587.23
2023-02-12T13:14:16.086Z,102582.37
2023-02-12T13:18:30.859Z,102582.17
2023-02-12T13:22:33.862Z,102581.91
2023-02-12T13:26:23.784Z,102583.77
2023-02-12T13:30:21.870Z,102578.59
2023-02-12T13:34:17.151Z,102577.91
2023-02-12T13:38:05.434Z,102582.60
2023-02-12T13:41:52.911Z,102591.41
2023-02-12T13:45:41.336Z,102595.05
2023-02-12T13:49:34.646Z,102586.52
2023-02-12T13:53:21.769Z,102580.27
2023-02-12T13:57:20.168Z,102580.63
2023-02-12T14:01:31.129Z,102587.76
2023-02-12T14:05:34.720Z,102587.75
2023-02-12T14:09:22.409Z,102584.29
2023-02-12T14:13:24.893Z,102585.87
2023-02-12T14:17:18.157Z,102589.05
2023-02-12T14:20:54.049Z,102588.49
2023-02-12T14:24:42.732Z,102589.60
2023-02-12T14:28:33.645Z,102586.87
2023-02-12T14:32:41.696Z,102586.03
2023-02-12T14:36:30.467Z,102587.59
2023-02-12T14:40:17.558Z,102578.14
2023-02-12T14:44:16.948Z,102579.34
2023-02-12T14:48:10.219Z,102578.96
2023-02-12T14:52:06.496Z,102590.56
2023-02-12T14:55:59.792Z,102588.19
2023-02-12T14:59:47.116Z,102584.12
2023-02-12T15:03:28.243Z,102587.32
2023-02-12T15:07:14.728Z,102590.48
2023-02-12T15:11:02.153Z,102587.11
2023-02-12T15:14:52.530Z,102591.19
2023-02-12T15:18:55.286Z,102596.80
2023-02-12T15:22:43.068Z,102599.84
2023-02-12T15:26:23.107Z,102606.05
2023-02-12T15:30:14.894Z,102603.54
2023-02-12T15:34:06.840Z,102604.89
2023-02-12T15:37:54.236Z,102602.95
2023-02-12T15:41:41.897Z,102607.36
2023-02-12T15:45:14.378Z,102610.23
2023-02-12T15:49:10.831Z,102616.92
2023-02-12T15:53:03.747Z,102616.83
2023-02-12T16:01:19.256Z,102608.48
2023-02-12T16:03:20.808Z,102610.52
2023-02-12T16:04:58.577Z,102610.80
2023-02-12T16:08:40.744Z,102614.83
2023-02-12T16:12:31.974Z,102608.64
2023-02-12T16:16:47.287Z,102601.21
2023-02-12T16:20:27.394Z,102608.64
2023-02-12T16:24:14.866Z,102605.53
2023-02-12T16:28:02.248Z,102602.08
2023-02-12T16:31:49.847Z,102597.64
2023-02-12T16:35:22.643Z,102596.98
2023-02-12T16:39:17.784Z,102589.62
2023-02-12T16:42:58.003Z,102583.93
2023-02-12T16:46:45.503Z,102585.80
2023-02-12T16:50:35.856Z,102583.20
2023-02-12T16:54:26.484Z,102584.02
2023-02-12T16:58:21.880Z,102584.15
2023-02-12T17:01:54.542Z,102587.75
2023-02-12T17:05:55.953Z,102586.13
2023-02-12T17:10:00.039Z,102583.35
2023-02-12T17:13:37.048Z,102584.39
2023-02-12T17:17:09.656Z,102596.38
2023-02-12T17:20:50.265Z,102597.29
2023-02-12T17:23:59.704Z,102601.64
2023-02-12T17:27:47.093Z,102602.19
2023-02-12T17:31:28.984Z,102601.31
2023-02-12T17:34:53.094Z,102605.81
2023-02-12T17:38:40.356Z,102607.79
2023-02-12T17:42:07.640Z,102633.06
2023-02-12T17:45:38.302Z,102652.14
2023-02-12T17:49:16.053Z,102646.02
2023-02-12T17:52:46.307Z,102641.63
2023-02-12T17:56:26.259Z,102638.66
2023-02-12T18:00:13.611Z,102624.11
2023-02-12T18:03:54.397Z,102616.79
2023-02-12T18:07:58.248Z,102613.67
2023-02-12T18:11:45.648Z,102610.64
2023-02-12T18:15:35.948Z,102609.25
2023-02-12T18:19:03.424Z,102611.75
2023-02-12T18:22:43.916Z,102603.33
2023-02-12T18:26:32.318Z,102603.03
2023-02-12T18:30:07.066Z,102596.61
2023-02-12T18:33:54.875Z,102588.89
2023-02-12T18:37:44.230Z,102591.67
2023-02-12T18:40:59.072Z,102589.71
2023-02-12T18:44:26.951Z,102589.64
2023-02-12T18:48:07.820Z,102580.78
2023-02-12T18:51:52.909Z,102585.20
2023-02-12T18:55:16.226Z,102578.02
2023-02-12T18:58:54.781Z,102576.75
2023-02-12T19:02:32.729Z,102571.49
2023-02-12T19:06:13.952Z,102572.16
2023-02-12T19:09:54.405Z,102570.34
2023-02-12T19:13:32.767Z,102559.88
2023-02-12T19:16:59.351Z,102559.84
2023-02-12T19:20:46.912Z,102558.02
2023-02-12T19:24:28.665Z,102554.52
2023-02-12T19:28:16.596Z,102549.27
2023-02-12T19:32:02.908Z,102550.52
2023-02-12T19:35:50.323Z,102541.77
2023-02-12T19:39:36.647Z,102529.73
2023-02-12T19:43:06.437Z,102525.46
2023-02-12T19:46:54.230Z,102532.96
2023-02-12T19:50:41.683Z,102525.41
2023-02-12T19:54:33.092Z,102521.30
2023-02-12T19:58:13.926Z,102522.25
2023-02-12T20:01:44.202Z,102528.90
2023-02-12T20:05:32.588Z,102518.39
2023-02-12T20:09:10.715Z,102512.67
2023-02-12T20:12:53.503Z,102511.34
2023-02-12T20:16:36.816Z,102507.15
2023-02-12T20:20:01.058Z,102508.92
2023-02-12T20:23:33.287Z,102499.77
2023-02-12T20:27:21.039Z,102500.98
2023-02-12T20:30:59.073Z,102500.85
2023-02-12T20:34:39.733Z,102494.70
2023-02-12T20:38:28.415Z,102490.07
2023-02-12T20:42:05.853Z,102485.63
2023-02-12T20:45:54.082Z,102485.40
2023-02-12T20:49:41.509Z,102479.21
2023-02-12T20:53:45.692Z,102480.85
2023-02-12T20:57:15.977Z,102486.33
2023-02-12T21:01:13.519Z,102484.82
2023-02-12T21:05:07.428Z,102482.09
2023-02-12T21:08:53.360Z,102484.25
2023-02-12T21:12:21.972Z,102483.06
2023-02-12T21:16:00.969Z,102478.64
2023-02-12T21:19:35.706Z,102473.17
2023-02-12T21:23:22.185Z,102466.80
2023-02-12T21:27:10.347Z,102472.59
2023-02-12T21:30:58.536Z,102470.95
2023-02-12T21:33:58.958Z,102467.75
2023-02-12T21:37:51.529Z,102471.82
2023-02-12T21:41:29.773Z,102475.58
2023-02-12T21:45:08.378Z,102475.34
2023-02-12T21:49:12.255Z,102469.02
2023-02-12T21:52:59.600Z,102463.23
2023-02-12T21:56:45.862Z,102458.29
2023-02-12T22:00:35.211Z,102451.27
2023-02-12T22:04:24.668Z,102454.48
2023-02-12T22:07:56.905Z,102448.30
2023-02-12T22:11:45.149Z,102453.76
2023-02-12T22:15:33.460Z,102456.48
2023-02-12T22:19:20.825Z,102453.10
2023-02-12T22:23:08.610Z,102451.13
2023-02-12T22:26:56.667Z,102449.48
2023-02-12T22:31:03.108Z,102449.70
2023-02-12T22:34:53.694Z,102446.21
2023-02-12T22:38:44.731Z,102449.68
2023-02-12T22:42:43.876Z,102447.74
2023-02-12T22:46:13.849Z,102441.90
2023-02-12T22:49:51.891Z,102433.68
2023-02-12T22:53:39.660Z,102431.89
2023-02-12T22:57:29.726Z,102426.45
2023-02-12T23:01:07.855Z,102422.77
2023-02-12T23:05:15.486Z,102415.15
2023-02-12T23:08:56.156Z,102410.89
2023-02-12T23:12:26.969Z,102402.27
2023-02-12T23:16:23.519Z,102400.11
2023-02-12T23:20:03.509Z,102398.83
2023-02-12T23:23:51.239Z,102397.71
2023-02-12T23:27:35.873Z,102380.98
2023-02-12T23:31:19.935Z,102373.66
2023-02-12T23:35:15.624Z,102374.87
2023-02-12T23:38:59.281Z,102372.75
2023-02-12T23:42:56.628Z,102368.71
2023-02-12T23:46:57.926Z,102357.59
2023-02-12T23:50:35.097Z,102340.50
2023-02-12T23:54:28.009Z,102346.36
2023-02-12T23:58:16.843Z,102333.77
